Reliable Warrior — SVCP4 — position and weather

sailwx.info

Track history (hours):
 
Tides and Currents Weather Stations Pressure Air Temp Water Temp Dewpoint Dewpoint Depression Visibility Wind Speed Wind Dir Waves Ship Positions

Reliable Warrior

Last reported at 2018-Jun-09 18:42 UTC. Time now 2018-Jun-21 19:37 UTC.
Position N 38°26' E 121°19'.
Warning: this ship's position is 12 days out of date.

Length 274 m; draft 16 m.

Type: Tanker. MMSI: 241501000.

Date/timePositionNaut miles runAvg speedWind from/ knotsBaromVisibWave heightAir tempDewpointWater temp
2018-Jun-09 18:42N 38°26' E 121°19'212.2
2018-Jun-09 18:30N 38°25' E 121°22'612.5
2018-Jun-09 18:00N 38°21' E 121°29'612.5
2018-Jun-09 17:30N 38°18' E 121°35'612.5
2018-Jun-09 17:00N 38°15' E 121°43'612.7
2018-Jun-09 16:30N 38°12' E 121°50'613.0
2018-Jun-09 16:00N 38°09' E 121°56'713.3
2018-Jun-09 15:30N 38°05' E 122°03'1313.0
2018-Jun-09 14:30N 37°58' E 122°17'612.8
2018-Jun-09 14:00N 37°54' E 122°24'612.5
2018-Jun-09 13:30N 37°51' E 122°31'612.2
2018-Jun-09 13:00N 37°49' E 122°38'44912.7
2018-Jun-08 01:40N 30°25' E 123°56'  
2018-Jun-01 12:57N 01°49' E 104°46'2611.9
2018-Jun-01 10:48N 01°27' E 104°32'413.0
2018-Jun-01 10:29N 01°25' E 104°28'713.2
2018-Jun-01 09:58N 01°20' E 104°23'612.1
2018-Jun-01 09:26N 01°17' E 104°18'612.3
2018-Jun-01 08:57N 01°16' E 104°12'612.2
2018-Jun-01 08:28N 01°15' E 104°06'611.6
2018-Jun-01 07:58N 01°15' E 104°00'4 8.6
2018-Jun-01 07:30N 01°16' E 103°57'1 1.3
2018-Jun-01 07:00N 01°16' E 103°57'0 0.0
2018-Jun-01 06:28N 01°16' E 103°57'0 0.0
2018-Jun-01 06:00N 01°16' E 103°57'0 0.0
2018-Jun-01 05:30N 01°16' E 103°57'0 0.0
2018-Jun-01 04:58N 01°16' E 103°57'0 0.0
2018-Jun-01 04:28N 01°16' E 103°57'0 0.0
2018-Jun-01 03:58N 01°16' E 103°57'0 0.0
2018-Jun-01 03:24N 01°16' E 103°57'0 0.0
2018-Jun-01 03:00N 01°16' E 103°57'0 0.0
2018-Jun-01 02:30N 01°16' E 103°57'0 0.0
2018-Jun-01 01:58N 01°16' E 103°57'0 0.0
2018-Jun-01 01:28N 01°16' E 103°57'0 0.0
2018-Jun-01 00:58N 01°16' E 103°57'0 0.0
2018-Jun-01 00:30N 01°16' E 103°57'0 0.0
2018-May-31 23:45N 01°16' E 103°57'0 0.0
2018-May-31 23:30N 01°16' E 103°57'0 0.0
2018-May-31 23:00N 01°16' E 103°57'0 0.0
2018-May-31 22:28N 01°16' E 103°57'0 0.0
2018-May-31 21:52N 01°16' E 103°57'0 0.0
2018-May-31 21:29N 01°16' E 103°57'0 0.1
2018-May-31 20:57N 01°16' E 103°57'0 0.0
2018-May-31 20:22N 01°16' E 103°57'0 0.1
2018-May-31 19:58N 01°16' E 103°57'0 0.0
2018-May-31 19:28N 01°16' E 103°57'0 0.0
2018-May-31 18:52N 01°16' E 103°57'0 0.0
2018-May-31 18:28N 01°16' E 103°57'0 0.0
2018-May-31 18:00N 01°16' E 103°57'0 0.3
2018-May-31 17:30N 01°16' E 103°57'1 2.5
2018-May-31 17:00N 01°15' E 103°57'2 4.8
2018-May-31 16:30N 01°13' E 103°55'3 6.2
2018-May-31 16:00N 01°12' E 103°52'4 8.8
2018-May-31 15:30N 01°10' E 103°48'5 9.8
2018-May-31 15:00N 01°07' E 103°45'510.4
2018-May-31 14:31N 01°04' E 103°40'5 9.1
2018-May-31 14:00N 01°05' E 103°36'510.3
2018-May-31 13:30N 01°07' E 103°31'4 7.9
2018-May-31 13:00N 01°09' E 103°28'4 7.7
2018-May-31 12:30N 01°11' E 103°25'4 7.7
2018-May-31 11:59N 01°14' E 103°21'4 7.7
2018-May-31 11:30N 01°16' E 103°19'4 7.6
2018-May-31 10:57N 01°19' E 103°16'4 7.6
2018-May-31 10:28N 01°22' E 103°13'  
Track history (hours):
 
Tides and Currents Weather Stations Pressure Air Temp Water Temp Dewpoint Dewpoint Depression Visibility Wind Speed Wind Dir Waves Ship Positions

Reliable Warrior

Last reported at 2018-Jun-09 18:42 UTC. Time now 2018-Jun-21 19:37 UTC.
Position N 38°26' E 121°19'.
Warning: this ship's position is 12 days out of date.

Length 274 m; draft 16 m.

Type: Tanker. MMSI: 241501000.

Date/timePositionNaut miles runAvg speedWind from/ knotsBaromVisibWave heightAir tempDewpointWater temp
2018-Jun-09 18:42N 38°26' E 121°19'212.2
2018-Jun-09 18:30N 38°25' E 121°22'612.5
2018-Jun-09 18:00N 38°21' E 121°29'612.5
2018-Jun-09 17:30N 38°18' E 121°35'612.5
2018-Jun-09 17:00N 38°15' E 121°43'612.7
2018-Jun-09 16:30N 38°12' E 121°50'613.0
2018-Jun-09 16:00N 38°09' E 121°56'713.3
2018-Jun-09 15:30N 38°05' E 122°03'1313.0
2018-Jun-09 14:30N 37°58' E 122°17'612.8
2018-Jun-09 14:00N 37°54' E 122°24'612.5
2018-Jun-09 13:30N 37°51' E 122°31'612.2
2018-Jun-09 13:00N 37°49' E 122°38'44912.7
2018-Jun-08 01:40N 30°25' E 123°56'  
2018-Jun-01 12:57N 01°49' E 104°46'2611.9
2018-Jun-01 10:48N 01°27' E 104°32'413.0
2018-Jun-01 10:29N 01°25' E 104°28'713.2
2018-Jun-01 09:58N 01°20' E 104°23'612.1
2018-Jun-01 09:26N 01°17' E 104°18'612.3
2018-Jun-01 08:57N 01°16' E 104°12'612.2
2018-Jun-01 08:28N 01°15' E 104°06'611.6
2018-Jun-01 07:58N 01°15' E 104°00'4 8.6
2018-Jun-01 07:30N 01°16' E 103°57'1 1.3
2018-Jun-01 07:00N 01°16' E 103°57'0 0.0
2018-Jun-01 06:28N 01°16' E 103°57'0 0.0
2018-Jun-01 06:00N 01°16' E 103°57'0 0.0
2018-Jun-01 05:30N 01°16' E 103°57'0 0.0
2018-Jun-01 04:58N 01°16' E 103°57'0 0.0
2018-Jun-01 04:28N 01°16' E 103°57'0 0.0
2018-Jun-01 03:58N 01°16' E 103°57'0 0.0
2018-Jun-01 03:24N 01°16' E 103°57'0 0.0
2018-Jun-01 03:00N 01°16' E 103°57'0 0.0
2018-Jun-01 02:30N 01°16' E 103°57'0 0.0
2018-Jun-01 01:58N 01°16' E 103°57'0 0.0
2018-Jun-01 01:28N 01°16' E 103°57'0 0.0
2018-Jun-01 00:58N 01°16' E 103°57'0 0.0
2018-Jun-01 00:30N 01°16' E 103°57'0 0.0
2018-May-31 23:45N 01°16' E 103°57'0 0.0
2018-May-31 23:30N 01°16' E 103°57'0 0.0
2018-May-31 23:00N 01°16' E 103°57'0 0.0
2018-May-31 22:28N 01°16' E 103°57'0 0.0
2018-May-31 21:52N 01°16' E 103°57'0 0.0
2018-May-31 21:29N 01°16' E 103°57'0 0.1
2018-May-31 20:57N 01°16' E 103°57'0 0.0
2018-May-31 20:22N 01°16' E 103°57'0 0.1
2018-May-31 19:58N 01°16' E 103°57'0 0.0
2018-May-31 19:28N 01°16' E 103°57'0 0.0
2018-May-31 18:52N 01°16' E 103°57'0 0.0
2018-May-31 18:28N 01°16' E 103°57'0 0.0
2018-May-31 18:00N 01°16' E 103°57'0 0.3
2018-May-31 17:30N 01°16' E 103°57'1 2.5
2018-May-31 17:00N 01°15' E 103°57'2 4.8
2018-May-31 16:30N 01°13' E 103°55'3 6.2
2018-May-31 16:00N 01°12' E 103°52'4 8.8
2018-May-31 15:30N 01°10' E 103°48'5 9.8
2018-May-31 15:00N 01°07' E 103°45'510.4
2018-May-31 14:31N 01°04' E 103°40'5 9.1
2018-May-31 14:00N 01°05' E 103°36'510.3
2018-May-31 13:30N 01°07' E 103°31'4 7.9
2018-May-31 13:00N 01°09' E 103°28'4 7.7
2018-May-31 12:30N 01°11' E 103°25'4 7.7
2018-May-31 11:59N 01°14' E 103°21'4 7.7
2018-May-31 11:30N 01°16' E 103°19'4 7.6
2018-May-31 10:57N 01°19' E 103°16'4 7.6
2018-May-31 10:28N 01°22' E 103°13'  

Dump ship's entire track history